Pilot Magazine UKGA

About You

Log In Register UKGA membership

Flight planning

Flight planning New flightplan NOTAM map LARS map & NOTAMs Danger area, mil. & TRA activations Weather map GPS route download Find waypoints Your waypoints New waypoint

Forums

Forums Currently discussing "Today Loans Do you need a fast loan"

Other items

Articles Events Links News Surveys Tips Other users Feedback UKGA membership About UKGA

TAFs

UK

TAF EGAA 241102Z 2412/2512 29011KT 9999 FEW012 SCT025 
      TEMPO 2412/2416 8000 SHRA PROB30 
      TEMPO 2412/2413 4000 +SHRA 
      BECMG 2421/2424 22012KT 
      BECMG 2500/2503 BKN006 
      TEMPO 2500/2508 7000 -RADZ 
      BECMG 2504/2508 26016G26KT 9999 FEW015 SCT035 PROB30 
      TEMPO 2508/2512 9000 -SHRA
      
TAF EGAC 241101Z 2412/2421 28009KT 9999 FEW025 SCT040 
      TEMPO 2412/2417 8000 SHRA PROB30 
      TEMPO 2412/2413 4000 +SHRA
      
TAF EGAE 241101Z 2412/2420 29013KT 9999 FEW025 SCT040 PROB30 
      TEMPO 2412/2417 9000 -SHRA
      
TAF EGBB 241052Z 2412/2512 28008KT 9999 SCT040 
      TEMPO 2412/2419 7000 SHRA PROB40 
      TEMPO 2412/2418 30015G25KT 2000 +SHRA BKN012 BKN025CB PROB30 
      TEMPO 2412/2416 TSRAGS 
      BECMG 2500/2503 22010KT 
      TEMPO 2506/2509 19015G25KT 2000 +RA BKN008
      
TAF EGBJ 241050Z 2412/2419 23005KT 9999 SCT030 
      TEMPO 2412/2417 7000 SHRA PROB30 
      TEMPO 2412/2417 25015G25KT 2000 +SHRA TSRAGS BKN012 BKN025CB
      
TAF EGCC 241058Z 2412/2518 29010KT 9999 SCT042 
      TEMPO 2412/2418 6000 SHRA PROB40 
      TEMPO 2412/2418 30015G25KT 3000 +SHRA TSRAGS 
      BECMG 2419/2422 21007KT 
      TEMPO 2505/2510 22015G25KT 4000 RA BKN014 
      BECMG 2510/2513 27010KT PROB30 
      TEMPO 2510/2514 28015G25KT 8000 SHRA BKN014
      
TAF EGCK 241057Z 2412/2421 30009KT 9999 FEW020 PROB40 
      TEMPO 2412/2416 3000 +SHRA 
      BECMG 2412/2414 24015KT
      
TAF EGCN 241054Z 2412/2512 29008KT 9999 FEW030 SCT040 
      TEMPO 2412/2420 6000 SHRA PROB40 
      TEMPO 2412/2420 30015G25KT 3000 +SHRA TSRAGS 
      BECMG 2421/2424 21010KT 
      TEMPO 2507/2512 22015G25KT 4000 RA BKN014
      
TAF EGDM 241017Z 2412/2418 30010KT 9999 SCT040 
      TEMPO 2412/2415 5000 SHRA SCT020TCU PROB30 
      TEMPO 2412/2415 31015G25KT 3000 +TSRA +SHGS BKN018CB PROB40 
      TEMPO 2415/2418 7000 SHRA SCT020TCU
      
TAF EGDR 241027Z 2412/2421 30015KT 9999 FEW020 SCT035 
      TEMPO 2412/2421 7000 -SHRA SCT020 PROB30 
      TEMPO 2412/2414 4000 SHRA SCT012 BKN016TCU
      
TAF EGDY 241110Z 2412/2421 25015G25KT 9999 SCT025 
      TEMPO 2412/2414 5000 SHRA SCT018CB PROB40 
      TEMPO 2412/2414 3500 +TSRAGS BKN018CB 
      BECMG 2415/2417 32010KT
      
TAF EGEC 241057Z 2412/2417 28012KT 9999 FEW016 SCT025 PROB40 
      TEMPO 2412/2414 4000 SHRA BKN014 PROB30 
      TEMPO 2412/2417 30016G26KT
      
TAF EGEO 241057Z 2412/2417 26009KT 9999 FEW014 SCT020 
      TEMPO 2412/2417 7000 -SHRA PROB30 
      TEMPO 2412/2415 4000 SHRA BKN014
      
TAF EGFF 241055Z 2412/2512 28010KT 9999 FEW028 PROB30 
      TEMPO 2412/2414 7000 SHRA 
      BECMG 2500/2503 22012KT 
      TEMPO 2503/2512 4000 RADZ BKN008 PROB40 
      TEMPO 2509/2512 24015G25KT
      
TAF EGGD 241055Z 2412/2512 27008KT 9999 FEW025 
      TEMPO 2412/2415 7000 SHRA PROB30 
      TEMPO 2412/2414 3000 +SHRA BKN014 BKN025CB 
      BECMG 2500/2503 21010KT PROB40 
      TEMPO 2505/2512 6000 -RADZ BKN008 PROB40 
      TEMPO 2509/2512 24015G25KT
      
TAF EGGP 241058Z 2412/2512 29012KT 9999 SCT042 
      TEMPO 2412/2416 6000 SHRA PROB40 
      TEMPO 2412/2416 30015G25KT 3000 +SHRA TSRAGS 
      BECMG 2420/2423 21009KT 
      TEMPO 2505/2510 22015G25KT 4000 RA BKN014 
      BECMG 2510/2512 27010KT PROB30 
      TEMPO 2510/2512 28015G25KT 8000 SHRA BKN014
      
TAF EGGW 241054Z 2412/2512 27008KT 9999 BKN030 
      TEMPO 2412/2418 7000 SHRA BKN014 BKN025CB PROB30 
      TEMPO 2412/2416 28015G25KT 3000 +TSRA 
      BECMG 2502/2505 21010KT PROB40 
      TEMPO 2510/2512 8000 -RA BKN012
      
TAF EGHC 241052Z 2412/2418 30012KT 9999 SCT020
      
TAF EGHE 241052Z 2412/2418 32010KT 9999 FEW020
      
TAF EGHH 241050Z 2412/2421 28008KT 9999 SCT045 
      TEMPO 2412/2421 7000 SHRA PROB30 
      TEMPO 2412/2418 2000 +SHRA TSRAGS BKN012 BKN025CB
      
TAF EGHI 241050Z 2412/2421 28005KT 9999 FEW020 SCT045 
      TEMPO 2412/2421 7000 SHRA PROB30 
      TEMPO 2412/2418 2000 +SHRA TSRAGS BKN012 BKN025CB
      
TAF EGHQ 241052Z 2412/2421 29012KT 9999 SCT020
      
TAF EGJA 241057Z 2412/2421 26011KT 9999 FEW012
      
TAF EGJB 241057Z 2412/2421 27012KT 9999 FEW015
      
TAF EGJJ 241057Z 2412/2421 27012KT 9999 FEW012
      
TAF EGKA 241110Z 2412/2420 27010KT 9999 SCT025 
      TEMPO 2412/2418 8000 SHRA PROB30 2412/2415 3000 +SHRA +TSRAGS BKN014CB
      
TAF EGKB 241047Z 2412/2421 28008KT 9999 SCT020 
      TEMPO 2412/2418 8000 SHRA PROB30 2412/2416 3000 +SHRA +TSRAGS BKN010CB
      
TAF EGKK 241101Z 2412/2518 26009KT 9999 SCT025 
      TEMPO 2412/2418 8000 SHRA PROB30 
      TEMPO 2412/2417 3000 +SHRA +TSRAGS BKN014CB PROB30 
      TEMPO 2508/2516 23015G26KT 9000 SHRA
      
TAF EGLC 241047Z 2412/2421 27009KT 9999 SCT025 
      TEMPO 2412/2418 8000 SHRA PROB30 2412/2416 3000 +SHRA +TSRAGS BKN014CB
      
TAF EGLF 241108Z 2412/2421 28007KT 9999 SCT025 
      TEMPO 2412/2418 8000 SHRA PROB30 2412/2416 3000 +SHRA +TSRAGS BKN014CB
      
TAF EGLL 241101Z 2412/2518 27008KT 9999 SCT030 
      TEMPO 2412/2418 7000 SHRA BKN014CB PROB30 
      TEMPO 2412/2417 27015G25KT 3000 +SHRA +TSRAGS PROB30 
      TEMPO 2510/2517 23015G25KT 8000 -RA SHRA BKN014
      
TAF EGMC 241047Z 2412/2421 27011KT 9999 SCT030 
      TEMPO 2412/2418 8000 SHRA PROB30 2412/2416 3000 +SHRA +TSRAGS
      
TAF AMD EGMD 241110Z 2412/2421 27010KT 9999 SCT025 
      TEMPO 2412/2418 8000 SHRA PROB30 2412/2415 3000 +SHRA +TSRAGS BKN014CB
      
TAF EGNH 241057Z 2412/2420 29014KT 9999 FEW015 SCT035 PROB40 
      TEMPO 2412/2416 30017G27KT 3000 +SHRA TSRAGS
      
TAF EGNJ 241057Z 2412/2421 29008KT 9999 FEW020 SCT035 
      TEMPO 2409/2418 6000 SHRA PROB40 
      TEMPO 2412/2418 30015G25KT 3000 +SHRA TSRAGS
      
TAF EGNM 241054Z 2412/2512 29012KT 9999 FEW020 SCT030 
      TEMPO 2412/2419 6000 SHRA PROB40 
      TEMPO 2412/2419 30015G25KT 3000 +SHRA TSRAGS 
      BECMG 2421/2424 21010KT 
      TEMPO 2507/2512 22015G25KT 4000 RA BKN014
      
TAF EGNO 241057Z 2412/2418 29011KT 9999 FEW015 SCT035 PROB40 
      TEMPO 2412/2418 30015G25KT 3000 +SHRA TSRAGS
      
TAF EGNR 241057Z 2412/2419 31010KT 9999 FEW015 SCT020 
      TEMPO 2412/2416 6000 SHRA PROB30 
      TEMPO 2412/2416 32015G25KT 3000 +SHRA TSRAGS
      
TAF EGNS 241100Z 2412/2421 26010KT 9999 FEW030
      
TAF EGNT 241054Z 2412/2512 28008KT 9999 FEW035 SCT045 
      TEMPO 2412/2420 6000 SHRA PROB40 
      TEMPO 2412/2420 29015G25KT 3000 +SHRA TSRAGS 
      BECMG 2502/2505 21010KT 
      TEMPO 2509/2512 22015G25KT 4000 RA BKN014
      
TAF EGNV 241057Z 2412/2421 27009KT 9999 FEW025 SCT040 
      TEMPO 2412/2418 6000 SHRA PROB40 
      TEMPO 2412/2418 28015G25KT 3000 +SHRA TSRAGS
      
TAF EGNX 241052Z 2412/2512 27010KT 9999 SCT040 
      TEMPO 2412/2419 7000 SHRA PROB40 
      TEMPO 2412/2418 30015G25KT 2000 +SHRA BKN012 BKN025CB PROB30 
      TEMPO 2412/2416 TSRAGS 
      BECMG 2500/2503 21009KT 
      TEMPO 2506/2509 19015G25KT 2000 +RA BKN008
      
TAF EGOS 241058Z 2412/2421 27010KT 9999 SCT025 
      TEMPO 2412/2416 6000 SHRA BKN020TCU PROB30 
      TEMPO 2412/2414 27015G25KT 2500 +TSRA BKN018CB PROB30 
      TEMPO 2416/2420 6000 SHRA SCT022
      
TAF EGOV 241050Z 2412/2419 26012KT 9999 FEW018TCU
      
TAF EGOW 241037Z 2412/2418 28012KT 9999 FEW015 PROB40 
      TEMPO 2412/2417 7000 SHRA BKN015CB PROB30 
      TEMPO 2412/2415 28015G25KT 3000 +TSRA SHGS
      
TAF EGPA 241057Z 2412/2421 34010KT 9999 SCT020 PROB40 
      TEMPO 2412/2418 4000 SHRA BKN012 
      BECMG 2418/2421 24005KT PROB30 
      TEMPO 2418/2421 8000 -SHRA
      
TAF EGPB 241057Z 2412/2421 35012KT 9999 SCT020 
      BECMG 2418/2421 25008KT
      
TAF EGPC 241057Z 2412/2421 34008KT 9999 SCT020 PROB40 
      TEMPO 2412/2421 4000 SHRA BKN012 
      BECMG 2415/2418 21010KT
      
TAF EGPD 241057Z 2412/2512 33010KT 9999 SCT030 
      TEMPO 2412/2422 6000 SHRA PROB30 
      TEMPO 2412/2419 3000 +SHRA BKN014 BKN025CB 
      BECMG 2413/2416 20007KT 
      TEMPO 2505/2509 7000 -RA BKN014 PROB30 
      TEMPO 2505/2508 5000 RADZ BKN009 
      BECMG 2509/2512 27015KT PROB30 
      TEMPO 2509/2512 6000 SHRA BKN012
      
TAF EGPE 241057Z 2412/2421 VRB03KT 9999 FEW030 PROB40 
      TEMPO 2412/2418 4000 SHRA BKN014 
      BECMG 2418/2421 21010KT PROB30 
      TEMPO 2418/2421 8000 -SHRA
      
TAF EGPF 241057Z 2412/2512 28010KT 9999 FEW030 SCT030 
      TEMPO 2412/2418 8000 -SHRA PROB30 
      TEMPO 2412/2415 4000 SHRA BKN014 
      BECMG 2422/2424 20008KT 
      TEMPO 2502/2510 7000 -RA BKN014 PROB40 
      TEMPO 2504/2510 21015G25KT 4000 RADZ BKN008 
      BECMG 2509/2512 27018G28KT PROB30 
      TEMPO 2510/2512 8000 -SHRA
      
TAF EGPH 241057Z 2412/2512 30007KT 9999 SCT030 
      TEMPO 2412/2420 6000 SHRA PROB30 
      TEMPO 2412/2418 3000 +SHRA BKN014 BKN025CB 
      BECMG 2421/2424 20010KT 
      TEMPO 2505/2510 7000 -RA BKN014 PROB30 
      TEMPO 2505/2509 20015G25KT 4000 RADZ BKN009 
      BECMG 2509/2512 27018G28KT PROB30 
      TEMPO 2510/2512 7000 -SHRA BKN014
      
TAF EGPI 241057Z 2412/2418 28010KT 9999 FEW016 SCT020 PROB40 
      TEMPO 2412/2414 4000 SHRA BKN014
      
TAF EGPK 241057Z 2412/2512 25012KT 9999 FEW025 SCT040 
      TEMPO 2412/2417 8000 -SHRA PROB40 
      TEMPO 2412/2415 4000 SHRA BKN014 
      BECMG 2421/2424 18009KT 
      TEMPO 2503/2509 20017G27KT 8000 -RA BKN014 PROB30 
      TEMPO 2503/2509 4000 RADZ BKN006 
      BECMG 2509/2512 26018G30KT PROB30 
      TEMPO 2510/2512 8000 -SHRA
      
TAF EGPL 241057Z 2412/2417 29009KT 9999 FEW018 SCT030 PROB30 
      TEMPO 2412/2417 8000 -SHRA
      
TAF EGPN 241057Z 2412/2421 25009KT 9999 FEW020 SCT040 
      TEMPO 2412/2421 6000 SHRA PROB30 
      TEMPO 2412/2418 3000 +SHRA BKN014 BKN025CB
      
TAF EGPO 241057Z 2412/2421 24005KT 9999 FEW018 SCT032 PROB40 
      TEMPO 2412/2414 4000 SHRA BKN014 PROB30 
      TEMPO 2414/2418 8000 -SHRA
      
TAF EGPU 241057Z 2412/2418 31009KT 9999 FEW020 PROB30 
      TEMPO 2412/2414 4000 SHRA BKN014
      
TAF EGQL 241027Z 2412/2421 VRB05KT 9999 SCT035 PROB40 
      TEMPO 2412/2420 7000 SHRA SCT024 PROB30 
      TEMPO 2412/2417 4000 +SHRA BKN020CB
      
TAF EGQS 241033Z 2412/2506 31008KT 9999 FEW018 BKN030 PROB40 
      TEMPO 2412/2418 6000 SHRA SCT018 PROB30 
      TEMPO 2412/2418 SCT028CB PROB30 
      TEMPO 2418/2421 6000 SHRA SCT022 PROB30 
      TEMPO 2503/2506 7000 -RA
      
TAF EGSC 241051Z 2412/2417 27010KT 9999 SCT025 
      TEMPO 2412/2417 8000 SHRA PROB30 2412/2416 3000 +SHRA +TSRAGS BKN014CB
      
TAF EGSH 241055Z 2412/2418 27010KT 9999 FEW025 SCT030 
      TEMPO 2412/2418 6000 SHRA PROB40 
      TEMPO 2412/2418 28015G25KT 3000 +SHRA TSRAGS
      
TAF EGSS 241054Z 2412/2518 27008KT 9999 BKN030 
      TEMPO 2412/2418 7000 SHRA BKN014 BKN025CB PROB30 
      TEMPO 2412/2417 28015G25KT 3000 +TSRA 
      BECMG 2502/2505 21010KT PROB40 
      TEMPO 2510/2515 22015G25KT 8000 -RA BKN014
      
TAF EGSY 241050Z 2412/2416 29009KT 9999 SCT020 
      TEMPO 2412/2416 7000 SHRA PROB30 
      TEMPO 2412/2416 30015G25KT 2000 +SHRA TSRAGS BKN012 BKN025CB
      
TAF EGTC 241051Z 2412/2418 27010KT 9999 SCT030 
      TEMPO 2412/2418 8000 SHRA PROB30 2412/2416 3000 +SHRA +TSRAGS BKN014CB
      
TAF EGTE 241052Z 2412/2419 30010KT 9999 FEW020 
      TEMPO 2412/2415 7000 SHRA
      
TAF EGTK 241051Z 2412/2421 29007KT 9999 SCT030 
      TEMPO 2412/2418 8000 SHRA PROB30 2412/2416 3000 +SHRA +TSRAGS BKN014CB
      
TAF EGUB 241045Z 2412/2421 26012KT 9999 FEW022 SCT040 
      TEMPO 2412/2418 5000 SHRA SCT030CB PROB30 
      TEMPO 2412/2417 3000 +TSGS BKN020CB
      
TAF AMD EGUL 240650Z 2406/2511 26009KT 9999 FEW015 SCT025 BKN040 QNH2952INS 
      TEMPO 2406/2408 9000 -SHRA 
      BECMG 2409/2410 28012G18KT 9999 SCT030 BKN050 QNH2963INS 
      TEMPO 2410/2412 8000 -SHRA 
      TEMPO 2412/2419 28015G25KT 3200 -TSRA BKN018CB OVC025 
      BECMG 2418/2419 25009KT 9999 SCT050 QNH2974INS 
      BECMG 2501/2502 23006KT 6000 BR FEW040 QNH2982INS 
      BECMG 2505/2506 22012KT 9999 NSW FEW020 BKN050 QNH2985INS TX15/2412Z TN08/2504Z
      
TAF EGUN 241200Z 2412/2518 27010G20KT 8000 -SHRA VCTS BKN030CB BKN100 610609 QNH2965INS 
      TEMPO 2414/2417 5000 -TSGS BKN020CB 
      BECMG 2417/2418 26009KT 8000 BR FEW010 SCT030 QNH2973INS 
      BECMG 2500/2501 23003KT 5000 BR SCT010 QNH2981INS 
      TEMPO 2505/2508 3200 BR BKN010 
      BECMG 2507/2508 23012G20KT 9999 NSW OVC020 QNH2979INS 
      TEMPO 2512/2515 26015G25KT 6000 -SHRA TX17/2414Z TN08/2501Z
      
TAF EGUW 241051Z 2412/2421 27012KT 9999 SCT040 
      TEMPO 2412/2420 7000 SHRA PROB30 
      TEMPO 2412/2418 26015G25KT 3000 +SHRA TSRA BKN020CB
      
TAF AMD EGVA 240800Z 2408/2510 26010KT 9999 SCT030 BKN045 QNH2958INS 
      BECMG 2411/2412 26010G15KT 8000 -SHRA SCT020 BKN040 QNH2959INS 
      BECMG 2415/2417 29010G20KT 8000 -SHRA BKN035 QNH2965INS 
      BECMG 2420/2421 29012KT 9999 NSW FEW040 QNH2965INS 
      BECMG 2502/2503 20010KT 9999 BKN020 QNH2985INS TX16/2416Z TN08/2502Z LAST NO 
      AMDS AFT 2408 NEXT 2414
      
TAF EGVN 241031Z 2412/2512 27008KT 9999 SCT045 PROB40 
      TEMPO 2412/2417 7000 SHRA SCT022CB PROB30 
      TEMPO 2412/2415 3000 +SHRA +TSRAGS 
      TEMPO 2504/2509 SCT012 
      BECMG 2507/2509 BKN018 
      TEMPO 2507/2512 5000 -RADZ PROB30 
      TEMPO 2509/2512 4000 RADZ SCT014
      
TAF EGVO 241053Z 2412/2424 27010KT 9999 FEW020 
      TEMPO 2412/2416 7000 SHRA SCT018 PROB30 
      TEMPO 2412/2416 3500 +TSRA BKN012CB PROB30 
      TEMPO 2416/2418 7000 SHRA SCT030
      
TAF EGVP 241039Z 2412/2421 28008KT 9999 FEW027 
      TEMPO 2412/2416 7000 SHRA BKN025CB PROB30 
      TEMPO 2412/2415 3000 +TSRA SHGS
      
TAF EGWC 241058Z 2412/2418 27010KT 9999 SCT025 
      TEMPO 2412/2417 6000 SHRA BKN020TCU PROB30 
      TEMPO 2412/2415 27015G25KT 2500 +TSRA BKN018CB PROB30 
      TEMPO 2417/2418 6000 SHRA SCT022
      
TAF EGWU 241048Z 2412/2506 27009KT 9999 FEW025 SCT045 
      TEMPO 2412/2419 5000 SHRA BKN025CB PROB40 
      TEMPO 2412/2418 3000 +TSRA BKN022
      
TAF EGXC 241020Z 2412/2506 28012KT 9999 SCT035 PROB40 
      TEMPO 2412/2418 5000 SHRA SCT035CB PROB30 
      TEMPO 2412/2417 3000 TSRA +SHRA
      
TAF EGXE 241030Z 2412/2418 26015KT 9999 FEW035 PROB40 
      TEMPO 2412/2417 4000 +SHRA BKN035CB PROB30 
      TEMPO 2412/2417 28015G25KT 3000 TSGS BKN025CB PROB30 
      TEMPO 2417/2418 7000 SHRA
      
TAF EGXT 241037Z 2412/2418 27012KT 9999 FEW020 SCT045 PROB40 
      TEMPO 2412/2418 7000 SHRA SCT020CB PROB30 
      TEMPO 2412/2417 26015G25KT 3000 +SHRA TSGS
      
TAF EGXW 241031Z 2412/2506 29013KT 9999 SCT035 PROB40 
      TEMPO 2412/2418 6000 SHRA BKN030CB PROB30 
      TEMPO 2412/2416 4000 +SHRA
      
TAF EGYD 241023Z 2412/2418 28014KT 9999 SCT030 
      TEMPO 2412/2418 6000 -SHRA PROB30 
      TEMPO 2412/2417 3000 +SHRA SCT025CB
      
TAF EGYM 241033Z 2412/2418 28010KT 9999 SCT030 
      TEMPO 2412/2418 6000 SHRA PROB30 
      TEMPO 2412/2418 29015G25KT 3000 +SHRA TSRA BKN024CB
      
TAF EGYP 241004Z 2412/2506 30010KT 9999 FEW030 PROB30 
      TEMPO 2501/2506 3000 -SHSN BKN012
      

About You

Log In Register UKGA membership

Airfields

Interactive airfield map Search by name Search by postcode Search by location Fuel prices Pilot reviews Latest
(No favourites selected)

Flight planning

Flight planning New flightplan NOTAM map LARS map & NOTAMs Danger area, mil. & TRA activations Weather map GPS route download Find waypoints Your waypoints New waypoint

Forums

Forums Currently discussing "Today Loans Do you need a fast loan"

Other items

Articles Events Links News Surveys Tips Other users Feedback UKGA membership About UKGA